Time;durP1;ratioP1;P1;durP2;ratioP2;P2;SDS_P1;SDS_P2;PMS_P1;PMS_P2;Temp;Humidity;BMP_temperature;BMP_pressure;BME280_temperature;BME280_humidity;BME280_pressure;Samples;Min_cycle;Max_cycle;Signal;HPM_P1;HPM_P2
2021/05/30 00:02:24;;;;;;;3.95;2.85;;;10.00;85.20;;;;;;5033988;28;20044;-70
2021/05/30 00:04:50;;;;;;;6.55;2.13;;;10.00;86.00;;;;;;5033809;28;20038;-69
2021/05/30 00:07:18;;;;;;;2.30;2.10;;;10.00;86.70;;;;;;5036739;28;20435;-69
2021/05/30 00:09:46;;;;;;;2.95;2.08;;;9.90;86.70;;;;;;5034139;28;20029;-69
2021/05/30 00:12:12;;;;;;;2.50;2.10;;;9.90;87.40;;;;;;5018380;28;20029;-69
2021/05/30 00:14:39;;;;;;;2.53;1.90;;;9.80;87.80;;;;;;5038505;28;20040;-69
2021/05/30 00:17:05;;;;;;;2.95;1.95;;;9.80;88.10;;;;;;5034560;28;20029;-71
2021/05/30 00:19:31;;;;;;;2.97;1.70;;;9.80;88.50;;;;;;5043164;28;20048;-69
2021/05/30 00:21:56;;;;;;;5.10;2.25;;;9.70;89.10;;;;;;5053089;28;20025;-70
2021/05/30 00:24:22;;;;;;;2.60;2.10;;;9.70;90.00;;;;;;5051979;28;20029;-69
2021/05/30 00:26:47;;;;;;;2.65;2.35;;;9.60;90.10;;;;;;5034878;28;20029;-70
2021/05/30 00:29:13;;;;;;;1.98;1.70;;;9.60;90.50;;;;;;5033280;28;20087;-69
2021/05/30 00:31:39;;;;;;;2.63;1.95;;;9.60;90.30;;;;;;5034137;28;20462;-69
2021/05/30 00:34:05;;;;;;;2.17;1.95;;;9.60;90.20;;;;;;5040697;28;20036;-70
2021/05/30 00:36:31;;;;;;;3.88;2.10;;;9.50;90.20;;;;;;5057884;28;20757;-70
2021/05/30 00:38:57;;;;;;;3.40;2.03;;;9.50;90.40;;;;;;5046788;28;20481;-69
2021/05/30 00:41:23;;;;;;;2.60;2.05;;;9.40;91.00;;;;;;5032621;28;20032;-70
2021/05/30 00:43:54;;;;;;;2.15;1.92;;;9.40;91.90;;;;;;5041818;28;20695;-70
2021/05/30 00:46:21;;;;;;;2.90;2.58;;;9.40;92.20;;;;;;5033780;28;20030;-69
2021/05/30 00:48:47;;;;;;;3.45;2.83;;;9.30;92.40;;;;;;5040427;28;20021;-69
2021/05/30 00:51:13;;;;;;;4.22;2.65;;;9.30;93.10;;;;;;5033499;28;20389;-69
2021/05/30 00:53:39;;;;;;;4.13;2.30;;;9.30;93.40;;;;;;5049259;28;20025;-69
2021/05/30 00:56:10;;;;;;;4.00;2.60;;;9.30;93.60;;;;;;5037171;28;20414;-70
2021/05/30 00:58:39;;;;;;;4.40;2.85;;;9.30;93.70;;;;;;5033216;28;20049;-69
2021/05/30 01:01:06;;;;;;;3.90;2.90;;;9.30;93.80;;;;;;5032936;28;20068;-70
2021/05/30 01:03:36;;;;;;;3.83;2.83;;;9.30;94.00;;;;;;5040459;28;20039;-69
2021/05/30 01:06:02;;;;;;;4.00;2.80;;;9.30;94.60;;;;;;5051176;28;20041;-69
2021/05/30 01:08:28;;;;;;;3.70;2.20;;;9.20;94.80;;;;;;5034025;28;20064;-69
2021/05/30 01:10:59;;;;;;;5.85;3.15;;;9.20;94.80;;;;;;5041557;28;20033;-69
2021/05/30 01:13:26;;;;;;;8.48;3.40;;;9.20;95.40;;;;;;5046829;28;20648;-69
2021/05/30 01:15:52;;;;;;;4.03;2.70;;;9.10;95.80;;;;;;5039903;28;20036;-69
2021/05/30 01:18:20;;;;;;;3.60;2.65;;;9.10;95.90;;;;;;5051005;28;20037;-69
2021/05/30 01:20:46;;;;;;;5.32;2.78;;;9.10;96.00;;;;;;5051919;28;20033;-68
2021/05/30 01:23:14;;;;;;;4.63;2.92;;;9.00;96.70;;;;;;5042142;28;20037;-69
2021/05/30 01:25:40;;;;;;;4.82;3.17;;;9.10;96.90;;;;;;5044561;28;20040;-69
2021/05/30 01:28:06;;;;;;;4.75;2.67;;;9.00;97.10;;;;;;5039214;28;20029;-70
2021/05/30 01:30:33;;;;;;;6.40;3.53;;;9.00;97.40;;;;;;5034516;28;20036;-69
2021/05/30 01:32:59;;;;;;;5.28;3.40;;;8.90;97.80;;;;;;5051099;28;20021;-69
2021/05/30 01:35:28;;;;;;;3.67;2.80;;;8.90;98.40;;;;;;5048696;28;20047;-69
2021/05/30 01:37:53;;;;;;;3.55;2.90;;;8.80;98.80;;;;;;5032834;28;20045;-69
2021/05/30 01:40:20;;;;;;;3.53;2.70;;;8.80;99.00;;;;;;5050582;28;20031;-69
2021/05/30 01:42:47;;;;;;;3.38;2.78;;;8.70;99.10;;;;;;5041383;28;20615;-69
2021/05/30 01:45:14;;;;;;;4.97;3.10;;;8.70;99.20;;;;;;5049209;28;20033;-69
2021/05/30 01:47:41;;;;;;;5.10;3.38;;;8.70;99.70;;;;;;5051175;28;20037;-69
2021/05/30 01:50:09;;;;;;;4.82;3.53;;;8.60;99.90;;;;;;5050752;28;20106;-70
2021/05/30 01:52:35;;;;;;;5.50;3.85;;;8.60;99.90;;;;;;5049056;28;20035;-69
2021/05/30 01:55:01;;;;;;;6.88;3.75;;;8.60;99.90;;;;;;5039126;28;20029;-68
2021/05/30 01:57:27;;;;;;;4.20;3.25;;;8.60;99.90;;;;;;5045325;28;20140;-68
2021/05/30 01:59:53;;;;;;;6.85;3.92;;;8.70;99.90;;;;;;5050797;28;20449;-69
2021/05/30 02:02:23;;;;;;;5.20;3.35;;;8.70;99.90;;;;;;5048838;28;20025;-68
2021/05/30 02:04:49;;;;;;;5.57;4.00;;;8.70;99.90;;;;;;5051166;28;20032;-69
2021/05/30 02:07:16;;;;;;;5.18;3.72;;;8.80;99.90;;;;;;5040472;28;20037;-69
2021/05/30 02:09:44;;;;;;;3.78;3.15;;;8.80;99.90;;;;;;5029852;28;20041;-69
2021/05/30 02:12:09;;;;;;;4.93;3.50;;;8.80;99.90;;;;;;5039230;28;20021;-70
2021/05/30 02:14:35;;;;;;;5.72;3.22;;;8.80;99.90;;;;;;5051130;28;20025;-68
2021/05/30 02:17:01;;;;;;;5.63;3.65;;;8.70;99.90;;;;;;5032018;28;21594;-68
2021/05/30 02:19:27;;;;;;;6.00;3.38;;;8.70;99.90;;;;;;5031061;28;20083;-69
2021/05/30 02:21:53;;;;;;;5.25;3.67;;;8.70;99.90;;;;;;5035104;28;20037;-69
2021/05/30 02:24:21;;;;;;;4.82;3.55;;;8.60;99.90;;;;;;5043303;28;20375;-68
2021/05/30 02:26:48;;;;;;;4.18;3.50;;;8.60;99.90;;;;;;5054447;28;20029;-69
2021/05/30 02:29:33;;;;;;;4.15;3.15;;;8.50;99.90;;;;;;5055922;28;20040;-68
2021/05/30 02:32:00;;;;;;;4.10;3.15;;;8.50;99.90;;;;;;5056005;28;20025;-69
2021/05/30 02:34:25;;;;;;;5.68;3.20;;;8.40;99.90;;;;;;5056919;28;20029;-68
2021/05/30 02:36:51;;;;;;;4.25;3.20;;;8.40;99.90;;;;;;5053143;28;20037;-70
2021/05/30 02:39:17;;;;;;;5.80;3.22;;;8.30;99.90;;;;;;5037228;28;20036;-68
2021/05/30 02:41:42;;;;;;;3.55;3.03;;;8.30;99.90;;;;;;5046188;28;20043;-69
2021/05/30 02:44:08;;;;;;;4.45;3.03;;;8.20;99.90;;;;;;5056614;28;20052;-70
2021/05/30 02:46:34;;;;;;;4.82;2.97;;;8.20;99.90;;;;;;5057015;28;20443;-68
2021/05/30 02:48:59;;;;;;;6.47;3.88;;;8.20;99.90;;;;;;5056899;28;20108;-69
2021/05/30 02:51:25;;;;;;;5.90;3.58;;;8.20;99.90;;;;;;5055036;28;20025;-69
2021/05/30 02:53:50;;;;;;;4.45;3.53;;;8.10;99.90;;;;;;5057199;28;20071;-68
2021/05/30 02:56:16;;;;;;;5.05;3.60;;;8.10;99.90;;;;;;5049093;28;20037;-69
2021/05/30 02:58:41;;;;;;;4.60;3.17;;;8.10;99.90;;;;;;5037679;28;20395;-68
2021/05/30 03:01:07;;;;;;;5.50;3.40;;;8.10;99.90;;;;;;5039265;28;20048;-69
2021/05/30 03:03:33;;;;;;;7.82;3.83;;;8.10;99.90;;;;;;5038611;28;20057;-68
2021/05/30 03:05:59;;;;;;;5.38;3.67;;;8.20;99.90;;;;;;5019942;28;20025;-68
2021/05/30 03:08:24;;;;;;;3.40;3.10;;;8.10;99.90;;;;;;5055642;28;20555;-68
2021/05/30 03:10:50;;;;;;;4.38;3.30;;;8.10;99.90;;;;;;5051766;28;20029;-71
2021/05/30 03:13:15;;;;;;;5.95;3.47;;;8.20;99.90;;;;;;5056114;28;20060;-71
2021/05/30 03:15:41;;;;;;;5.90;3.60;;;8.20;99.90;;;;;;5046670;28;20029;-69
2021/05/30 03:18:07;;;;;;;4.82;3.70;;;8.20;99.90;;;;;;5050710;28;20389;-70
2021/05/30 03:20:33;;;;;;;8.23;4.53;;;8.20;99.90;;;;;;5040799;28;20030;-69
2021/05/30 03:22:58;;;;;;;4.70;3.67;;;8.20;99.90;;;;;;5037539;28;20022;-70
2021/05/30 03:25:24;;;;;;;7.70;4.43;;;8.20;99.90;;;;;;5036928;28;20022;-70
2021/05/30 03:27:50;;;;;;;6.78;3.80;;;8.20;99.90;;;;;;5037846;28;20201;-70
2021/05/30 03:30:16;;;;;;;8.18;4.10;;;8.30;99.90;;;;;;5039035;28;20053;-70
2021/05/30 03:32:42;;;;;;;4.75;3.20;;;8.30;99.90;;;;;;5037361;28;20095;-70
2021/05/30 03:35:09;;;;;;;5.60;3.63;;;8.20;99.90;;;;;;5020632;28;20029;-70
2021/05/30 03:37:35;;;;;;;6.80;3.83;;;8.20;99.90;;;;;;5052331;28;20033;-70
2021/05/30 03:40:06;;;;;;;6.22;3.63;;;8.20;99.90;;;;;;5052529;28;20078;-70
2021/05/30 03:42:36;;;;;;;5.80;4.20;;;8.20;99.90;;;;;;5039902;28;20041;-70
2021/05/30 03:45:03;;;;;;;7.22;3.65;;;8.20;99.90;;;;;;5050318;28;20040;-70
2021/05/30 03:47:28;;;;;;;6.65;3.88;;;8.20;99.90;;;;;;5035125;28;20037;-70
2021/05/30 03:49:54;;;;;;;5.78;3.65;;;8.10;99.90;;;;;;5045636;28;20094;-70
2021/05/30 03:52:20;;;;;;;4.78;3.45;;;8.10;99.90;;;;;;5053423;28;20030;-70
2021/05/30 03:54:45;;;;;;;4.65;3.33;;;8.10;99.90;;;;;;5055940;28;20035;-69
2021/05/30 03:57:11;;;;;;;4.97;3.28;;;8.10;99.90;;;;;;5052184;28;20103;-72
2021/05/30 03:59:37;;;;;;;4.95;3.20;;;8.10;99.90;;;;;;5053038;28;20112;-70
2021/05/30 04:02:04;;;;;;;4.60;3.13;;;8.10;99.90;;;;;;5052110;28;20056;-70
2021/05/30 04:04:30;;;;;;;3.97;3.38;;;8.10;99.90;;;;;;5041177;28;20056;-70
2021/05/30 04:06:56;;;;;;;6.53;3.47;;;8.10;99.90;;;;;;5037299;28;20037;-70
2021/05/30 04:09:21;;;;;;;4.53;3.25;;;8.10;99.90;;;;;;5033188;28;20044;-70
2021/05/30 04:11:47;;;;;;;5.25;2.97;;;8.10;99.90;;;;;;5048002;28;20025;-70
2021/05/30 04:14:12;;;;;;;6.15;3.70;;;8.10;99.90;;;;;;5052613;28;20100;-71
2021/05/30 04:16:38;;;;;;;4.03;3.40;;;8.10;99.90;;;;;;5050969;28;20100;-70
2021/05/30 04:19:04;;;;;;;3.95;3.03;;;8.10;99.90;;;;;;5051604;28;20036;-69
2021/05/30 04:21:29;;;;;;;5.30;3.30;;;8.20;99.90;;;;;;5051615;28;20087;-70
2021/05/30 04:23:55;;;;;;;3.40;2.70;;;8.30;99.90;;;;;;5026004;28;20079;-70
2021/05/30 04:26:21;;;;;;;5.45;3.70;;;8.30;99.90;;;;;;5045983;28;20083;-70
2021/05/30 04:28:46;;;;;;;3.20;2.83;;;8.30;99.90;;;;;;5048707;28;20025;-70
2021/05/30 04:31:12;;;;;;;4.75;3.28;;;8.40;99.90;;;;;;5062801;28;20126;-71
2021/05/30 04:33:37;;;;;;;4.18;2.83;;;8.50;99.90;;;;;;5057061;28;20485;-70
2021/05/30 04:36:03;;;;;;;4.63;3.50;;;8.50;99.90;;;;;;5050080;28;20532;-70
2021/05/30 04:38:29;;;;;;;7.25;3.50;;;8.60;99.90;;;;;;5039231;28;20037;-70
2021/05/30 04:40:55;;;;;;;4.80;3.35;;;8.70;99.90;;;;;;5037604;28;20036;-70
2021/05/30 04:43:20;;;;;;;4.32;3.30;;;8.80;99.90;;;;;;5036930;28;20030;-70
2021/05/30 04:45:46;;;;;;;8.85;4.85;;;8.90;99.90;;;;;;5024181;28;20067;-70
2021/05/30 04:48:12;;;;;;;5.55;4.68;;;9.00;99.90;;;;;;5052282;28;20039;-71
2021/05/30 04:50:38;;;;;;;6.30;4.60;;;9.10;99.90;;;;;;5050952;28;20052;-70
2021/05/30 04:53:03;;;;;;;6.07;4.07;;;9.30;99.90;;;;;;5034705;28;20412;-70
2021/05/30 04:55:29;;;;;;;4.65;3.90;;;9.30;99.90;;;;;;5050714;28;20039;-70
2021/05/30 04:57:55;;;;;;;4.80;3.78;;;9.50;99.90;;;;;;5051844;28;20081;-69
2021/05/30 05:00:21;;;;;;;4.95;3.78;;;9.50;99.80;;;;;;5050209;28;20032;-70
2021/05/30 05:02:46;;;;;;;5.13;3.80;;;9.60;99.50;;;;;;5051497;28;20040;-70
2021/05/30 05:05:13;;;;;;;5.47;3.50;;;9.70;99.10;;;;;;5044512;28;20446;-71
2021/05/30 05:07:40;;;;;;;7.18;4.25;;;9.80;98.50;;;;;;5051509;28;20060;-70
2021/05/30 05:10:07;;;;;;;4.53;4.10;;;9.90;97.80;;;;;;5051771;28;20040;-70
2021/05/30 05:12:33;;;;;;;8.23;5.22;;;10.00;97.50;;;;;;5043447;28;20691;-70
2021/05/30 05:14:59;;;;;;;8.90;4.60;;;10.10;96.70;;;;;;5032927;28;20044;-69
2021/05/30 05:17:25;;;;;;;7.10;4.90;;;10.20;95.80;;;;;;5036388;28;20036;-69
2021/05/30 05:19:50;;;;;;;5.65;4.55;;;10.30;95.30;;;;;;5019021;28;20040;-69
2021/05/30 05:22:16;;;;;;;7.10;4.07;;;10.40;94.10;;;;;;5031815;28;20083;-70
2021/05/30 05:24:42;;;;;;;6.43;4.95;;;10.50;93.20;;;;;;5042993;28;20029;-70
2021/05/30 05:27:10;;;;;;;6.50;4.60;;;10.60;93.00;;;;;;5051906;28;20033;-69
2021/05/30 05:29:36;;;;;;;5.07;4.13;;;10.70;92.60;;;;;;5049277;28;20486;-69
2021/05/30 05:32:02;;;;;;;6.30;3.95;;;10.80;91.70;;;;;;5041356;28;20030;-69
2021/05/30 05:34:28;;;;;;;6.20;4.30;;;10.90;90.60;;;;;;5044871;28;20490;-70
2021/05/30 05:36:54;;;;;;;6.50;4.38;;;11.10;89.00;;;;;;5042704;28;20072;-70
2021/05/30 05:39:19;;;;;;;5.88;4.15;;;11.20;88.40;;;;;;5042396;28;20121;-70
2021/05/30 05:41:48;;;;;;;4.93;3.75;;;11.20;88.50;;;;;;5050719;28;20033;-69
2021/05/30 05:44:14;;;;;;;5.40;3.95;;;11.30;88.30;;;;;;5035259;28;20088;-71
2021/05/30 05:46:39;;;;;;;6.45;4.50;;;11.40;87.60;;;;;;5031954;28;20479;-70
2021/05/30 05:49:05;;;;;;;5.63;4.13;;;11.50;86.70;;;;;;5032228;28;20025;-69
2021/05/30 05:51:30;;;;;;;7.07;4.10;;;11.60;85.20;;;;;;5038170;28;20094;-69
2021/05/30 05:53:56;;;;;;;5.47;4.18;;;11.60;84.90;;;;;;5051298;28;20079;-69
2021/05/30 05:56:22;;;;;;;6.20;4.10;;;11.70;85.80;;;;;;5050359;28;20370;-70
2021/05/30 05:58:47;;;;;;;4.72;3.80;;;11.90;83.20;;;;;;5049599;28;20077;-70
2021/05/30 06:01:13;;;;;;;5.40;4.13;;;11.90;83.10;;;;;;5041904;28;20025;-69
2021/05/30 06:03:39;;;;;;;4.70;4.15;;;12.00;81.80;;;;;;5045890;28;20371;-70
2021/05/30 06:06:04;;;;;;;6.45;4.22;;;12.30;80.80;;;;;;5051984;28;20075;-69
2021/05/30 06:08:31;;;;;;;5.40;4.28;;;12.10;81.00;;;;;;5037732;28;20086;-68
2021/05/30 06:10:57;;;;;;;5.07;4.00;;;12.40;84.10;;;;;;5050599;28;20040;-69
2021/05/30 06:13:23;;;;;;;4.63;3.95;;;12.40;78.40;;;;;;5033760;28;20042;-72
2021/05/30 06:15:48;;;;;;;5.57;3.80;;;12.60;78.30;;;;;;5037055;28;20056;-68
2021/05/30 06:18:16;;;;;;;7.18;3.55;;;12.60;76.50;;;;;;5047097;28;20502;-72
2021/05/30 06:20:46;;;;;;;5.40;3.38;;;12.70;75.80;;;;;;5041350;28;20065;-69
2021/05/30 06:23:12;;;;;;;;;;;12.80;77.00;;;;;;5042889;28;20466;-69
2021/05/30 06:25:40;;;;;;;4.63;3.58;;;13.00;75.90;;;;;;5040403;28;19909;-69
2021/05/30 06:28:05;;;;;;;5.40;3.67;;;13.20;74.40;;;;;;5040235;28;20033;-69
2021/05/30 06:30:36;;;;;;;5.88;3.00;;;13.30;73.80;;;;;;5038736;28;20063;-69
2021/05/30 06:33:06;;;;;;;4.32;3.92;;;13.40;73.20;;;;;;5038291;28;20479;-69
2021/05/30 06:35:32;;;;;;;5.00;3.20;;;13.60;72.10;;;;;;5041826;28;20059;-69
2021/05/30 06:38:00;;;;;;;3.50;2.90;;;13.70;71.70;;;;;;5039932;28;20044;-69
2021/05/30 06:40:26;;;;;;;4.82;3.50;;;13.80;71.60;;;;;;5039869;28;20458;-69
2021/05/30 06:42:51;;;;;;;4.93;2.90;;;14.00;73.00;;;;;;5041676;28;20035;-70
2021/05/30 06:45:17;;;;;;;4.97;3.20;;;14.20;77.20;;;;;;5040489;28;20036;-72
2021/05/30 06:47:43;;;;;;;4.15;3.50;;;14.40;77.80;;;;;;5040486;28;20416;-69
2021/05/30 06:50:09;;;;;;;5.47;3.40;;;14.50;77.60;;;;;;5021628;28;20113;-69
2021/05/30 06:52:34;;;;;;;6.38;3.50;;;14.70;77.40;;;;;;5040269;28;20021;-69
2021/05/30 06:55:00;;;;;;;9.20;3.92;;;14.80;77.30;;;;;;5041347;28;20033;-69
2021/05/30 06:57:26;;;;;;;3.20;2.78;;;14.80;77.50;;;;;;5037878;28;20033;-69
2021/05/30 06:59:51;;;;;;;4.50;3.63;;;14.90;79.20;;;;;;5041572;28;20040;-69
2021/05/30 07:02:18;;;;;;;3.40;3.10;;;14.90;79.30;;;;;;5036274;28;20100;-72
2021/05/30 07:04:44;;;;;;;6.63;3.75;;;15.00;80.90;;;;;;5040850;28;20029;-68
2021/05/30 07:07:10;;;;;;;3.58;2.80;;;15.20;82.00;;;;;;5040899;28;20029;-68
2021/05/30 07:09:35;;;;;;;4.35;3.58;;;15.20;75.70;;;;;;5041353;28;20096;-68
2021/05/30 07:12:02;;;;;;;5.22;3.03;;;15.30;77.70;;;;;;5043040;28;20104;-68
2021/05/30 07:14:28;;;;;;;5.22;3.10;;;15.30;79.30;;;;;;5024851;28;20374;-67
2021/05/30 07:16:56;;;;;;;4.03;3.35;;;15.20;82.00;;;;;;5044857;28;20033;-67
2021/05/30 07:19:22;;;;;;;7.18;3.40;;;15.60;91.50;;;;;;5041370;28;20116;-72
2021/05/30 07:21:48;;;;;;;6.68;3.65;;;15.50;88.40;;;;;;5044494;28;20033;-68
2021/05/30 07:24:13;;;;;;;4.43;3.40;;;15.50;87.60;;;;;;5043659;28;20040;-67
2021/05/30 07:26:40;;;;;;;3.40;3.10;;;15.80;82.00;;;;;;5043582;28;20057;-67
2021/05/30 07:29:06;;;;;;;6.40;3.47;;;15.60;81.50;;;;;;5042857;28;20083;-68
2021/05/30 07:31:33;;;;;;;4.07;2.92;;;15.40;62.30;;;;;;5043579;28;20028;-67
2021/05/30 07:33:58;;;;;;;3.70;2.80;;;15.60;62.30;;;;;;5039390;28;20120;-67
2021/05/30 07:36:24;;;;;;;2.83;2.47;;;15.70;61.00;;;;;;5045364;28;20096;-68
2021/05/30 07:38:50;;;;;;;3.33;2.95;;;15.80;61.10;;;;;;5043382;28;20474;-67
2021/05/30 07:41:16;;;;;;;3.55;3.20;;;15.90;61.20;;;;;;5041205;28;20044;-68
2021/05/30 07:43:42;;;;;;;5.28;3.47;;;16.00;60.50;;;;;;5042079;28;20037;-67
2021/05/30 07:46:08;;;;;;;4.82;2.70;;;15.90;58.90;;;;;;5024633;28;20025;-67
2021/05/30 07:48:33;;;;;;;4.30;2.70;;;15.90;59.80;;;;;;5039957;28;20029;-67
2021/05/30 07:50:59;;;;;;;4.10;2.65;;;15.90;59.30;;;;;;5043353;28;20517;-68
2021/05/30 07:53:25;;;;;;;5.00;2.67;;;15.90;59.20;;;;;;5043140;28;20080;-68
2021/05/30 07:55:50;;;;;;;3.92;2.83;;;16.10;58.20;;;;;;5042268;28;20116;-68
2021/05/30 07:58:16;;;;;;;2.90;2.40;;;16.20;57.20;;;;;;5044150;28;20049;-67
2021/05/30 08:00:42;;;;;;;3.10;2.63;;;16.20;56.70;;;;;;5041606;28;20784;-68
2021/05/30 08:03:08;;;;;;;3.58;2.70;;;16.20;57.30;;;;;;5042127;28;20021;-68
2021/05/30 08:05:34;;;;;;;4.55;2.40;;;16.40;57.30;;;;;;5022705;28;20041;-71
2021/05/30 08:07:59;;;;;;;2.80;2.50;;;16.50;56.60;;;;;;5033951;28;20033;-68
2021/05/30 08:10:28;;;;;;;3.03;2.28;;;16.60;53.60;;;;;;5043086;28;20127;-68
2021/05/30 08:12:54;;;;;;;4.43;2.08;;;16.70;52.80;;;;;;5043692;28;20061;-68
2021/05/30 08:15:20;;;;;;;2.30;2.00;;;16.70;51.60;;;;;;5044976;28;20117;-70
2021/05/30 08:17:46;;;;;;;3.30;2.17;;;16.80;51.20;;;;;;5023213;28;20037;-68
2021/05/30 08:20:14;;;;;;;4.30;2.08;;;16.80;52.10;;;;;;5042326;28;20036;-67
2021/05/30 08:22:40;;;;;;;2.70;2.38;;;16.70;52.50;;;;;;5024739;28;20552;-68
2021/05/30 08:25:07;;;;;;;4.72;2.45;;;16.80;53.40;;;;;;5041251;28;20568;-68
2021/05/30 08:27:33;;;;;;;7.20;2.65;;;17.00;52.00;;;;;;5040923;28;20398;-66
2021/05/30 08:29:59;;;;;;;2.78;2.20;;;17.20;51.60;;;;;;5041586;28;20033;-67
2021/05/30 08:32:25;;;;;;;2.75;2.30;;;17.20;50.60;;;;;;5043973;28;20471;-67
2021/05/30 08:34:50;;;;;;;3.22;2.22;;;17.30;50.90;;;;;;5040792;28;20039;-67
2021/05/30 08:37:18;;;;;;;3.60;2.22;;;17.40;48.40;;;;;;5038927;28;20046;-68
2021/05/30 08:39:45;;;;;;;2.67;2.30;;;17.60;48.80;;;;;;5041302;28;20120;-72
2021/05/30 08:42:11;;;;;;;4.28;2.28;;;17.70;49.20;;;;;;5042447;28;20163;-69
2021/05/30 08:44:36;;;;;;;2.70;2.13;;;17.80;48.80;;;;;;5048077;28;20101;-70
2021/05/30 08:47:02;;;;;;;5.20;2.10;;;17.90;49.30;;;;;;5045412;28;20129;-70
2021/05/30 08:49:28;;;;;;;4.93;2.15;;;18.00;47.90;;;;;;5040620;28;20472;-73
2021/05/30 08:51:54;;;;;;;2.63;2.10;;;18.10;48.50;;;;;;5042206;28;20088;-72
2021/05/30 08:54:20;;;;;;;3.92;2.20;;;18.20;48.00;;;;;;5042378;28;20029;-75
2021/05/30 08:56:47;;;;;;;2.80;2.20;;;18.40;47.20;;;;;;5044698;28;20034;-71
2021/05/30 08:59:29;;;;;;;3.47;2.10;;;18.40;47.30;;;;;;5049491;28;20466;-70
2021/05/30 09:02:09;;;;;;;3.13;2.40;;;18.50;46.50;;;;;;5034863;28;20033;-73
2021/05/30 09:05:02;;;;;;;3.38;2.28;;;18.60;46.90;;;;;;5037732;28;20029;-73
2021/05/30 09:07:44;;;;;;;3.25;2.13;;;18.80;47.50;;;;;;5033106;28;20048;-73
2021/05/30 09:10:17;;;;;;;2.38;2.00;;;19.00;46.50;;;;;;5043557;28;20025;-73
2021/05/30 09:12:43;;;;;;;4.03;2.10;;;19.20;44.60;;;;;;5032281;28;20383;-73
2021/05/30 09:15:48;;;;;;;1.95;1.77;;;19.30;45.10;;;;;;5045731;28;20124;-72
2021/05/30 09:18:19;;;;;;;2.92;2.05;;;19.30;43.10;;;;;;5044790;28;20037;-72
2021/05/30 09:21:01;;;;;;;3.10;2.08;;;19.10;44.70;;;;;;5051195;28;20067;-71
2021/05/30 09:23:45;;;;;;;2.85;2.30;;;19.10;43.80;;;;;;5039008;28;20022;-71
2021/05/30 09:26:14;;;;;;;3.80;2.22;;;19.00;43.80;;;;;;5049430;28;20029;-74
2021/05/30 09:29:00;;;;;;;3.03;2.20;;;18.80;45.60;;;;;;5018129;28;20041;-73
2021/05/30 09:31:26;;;;;;;3.17;2.10;;;19.00;45.90;;;;;;5030994;28;20505;-73
2021/05/30 09:33:52;;;;;;;5.57;2.10;;;19.40;43.20;;;;;;5036985;28;20120;-71
2021/05/30 09:36:21;;;;;;;3.65;1.92;;;19.50;43.90;;;;;;5032414;28;20022;-73
2021/05/30 09:38:46;;;;;;;5.93;2.38;;;19.80;43.50;;;;;;5031672;28;20038;-72
2021/05/30 09:41:15;;;;;;;4.25;2.33;;;20.10;43.40;;;;;;5040864;28;20033;-71
2021/05/30 09:43:52;;;;;;;4.82;2.50;;;20.00;44.00;;;;;;5035058;28;20040;-70
2021/05/30 09:46:20;;;;;;;2.97;2.47;;;19.80;45.00;;;;;;5050866;28;20603;-70
2021/05/30 09:48:49;;;;;;;2.90;2.63;;;19.80;46.10;;;;;;5036058;28;20033;-70
2021/05/30 09:51:23;;;;;;;5.88;2.35;;;20.00;45.00;;;;;;5044422;28;20021;-69
2021/05/30 09:53:49;;;;;;;3.67;2.30;;;19.80;43.90;;;;;;5040820;28;20065;-68
2021/05/30 09:56:33;;;;;;;2.90;2.20;;;19.80;43.50;;;;;;5041500;28;20756;-69
2021/05/30 09:59:00;;;;;;;4.32;2.28;;;19.60;44.10;;;;;;5040109;28;20068;-70
2021/05/30 10:01:26;;;;;;;3.58;2.38;;;19.50;43.10;;;;;;5039389;28;20030;-71
2021/05/30 10:03:56;;;;;;;2.50;2.30;;;19.50;43.90;;;;;;5039063;28;20091;-70
2021/05/30 10:06:24;;;;;;;3.45;2.20;;;19.50;43.50;;;;;;5033190;28;20029;-69
2021/05/30 10:08:51;;;;;;;2.80;2.10;;;19.30;45.10;;;;;;5040929;28;20033;-68
2021/05/30 10:11:19;;;;;;;2.10;2.00;;;19.40;44.80;;;;;;5041400;28;20056;-75
2021/05/30 10:13:45;;;;;;;3.45;2.13;;;19.50;42.90;;;;;;5039710;28;20359;-73
2021/05/30 10:16:13;;;;;;;2.55;1.80;;;19.70;43.00;;;;;;5037856;28;20455;-72
2021/05/30 10:18:42;;;;;;;3.42;2.40;;;19.70;43.20;;;;;;5038045;28;20037;-72
2021/05/30 10:21:13;;;;;;;2.22;2.03;;;19.70;43.30;;;;;;5042804;28;20079;-73
2021/05/30 10:23:40;;;;;;;2.40;1.98;;;19.70;43.60;;;;;;5038996;28;20025;-71
2021/05/30 10:26:20;;;;;;;3.22;2.30;;;19.50;44.20;;;;;;5045675;28;20025;-75
2021/05/30 10:29:02;;;;;;;4.18;1.90;;;19.30;43.10;;;;;;4996619;28;20110;-73
2021/05/30 10:31:33;;;;;;;3.05;2.15;;;18.90;44.50;;;;;;5027066;28;20355;-72
2021/05/30 10:34:10;;;;;;;2.28;2.00;;;18.60;45.60;;;;;;5035137;28;20026;-73
2021/05/30 10:36:36;;;;;;;3.38;2.40;;;18.70;45.20;;;;;;5042846;28;20036;-73
2021/05/30 10:39:03;;;;;;;3.85;2.60;;;19.00;45.80;;;;;;5051101;28;20033;-72
2021/05/30 10:41:29;;;;;;;4.93;2.20;;;19.40;45.30;;;;;;5051879;28;20130;-73
2021/05/30 10:43:54;;;;;;;3.60;2.47;;;19.70;42.90;;;;;;5051958;28;20401;-73
2021/05/30 10:46:23;;;;;;;2.80;2.03;;;19.90;42.30;;;;;;5048987;28;20517;-72
2021/05/30 10:49:15;;;;;;;6.20;2.40;;;20.00;43.60;;;;;;5035176;28;20025;-70
2021/05/30 10:51:45;;;;;;;3.88;2.33;;;20.40;43.00;;;;;;5042375;28;20056;-73
2021/05/30 10:54:13;;;;;;;3.60;2.40;;;20.70;41.70;;;;;;5036878;28;20038;-73
2021/05/30 10:56:56;;;;;;;5.28;2.20;;;20.80;40.90;;;;;;5035777;28;20028;-73
2021/05/30 10:59:25;;;;;;;2.58;2.13;;;21.00;42.00;;;;;;5042557;28;20571;-73
2021/05/30 11:01:52;;;;;;;3.00;2.28;;;20.90;39.90;;;;;;5055768;28;20035;-74
2021/05/30 11:04:28;;;;;;;3.45;2.20;;;20.90;41.20;;;;;;5036084;28;20475;-73
2021/05/30 11:07:31;;;;;;;4.60;2.35;;;21.20;40.20;;;;;;5041523;28;20032;-73
2021/05/30 11:10:02;;;;;;;2.45;2.00;;;21.70;39.20;;;;;;5050942;28;20056;-74
2021/05/30 11:12:34;;;;;;;3.90;1.98;;;21.70;39.10;;;;;;5046007;28;20024;-74
2021/05/30 11:15:16;;;;;;;3.55;2.35;;;21.30;37.70;;;;;;5045923;28;20017;-73
2021/05/30 11:17:49;;;;;;;5.30;2.72;;;20.70;38.50;;;;;;5053371;28;20037;-75
2021/05/30 11:20:48;;;;;;;2.05;1.83;;;20.40;40.40;;;;;;5045316;28;20032;-75
2021/05/30 11:23:17;;;;;;;4.10;2.45;;;20.40;40.50;;;;;;5045795;28;20053;-72
2021/05/30 11:25:53;;;;;;;3.85;1.85;;;20.40;39.40;;;;;;5045775;28;20064;-74
2021/05/30 11:28:26;;;;;;;3.33;2.17;;;20.20;38.90;;;;;;5045303;28;20044;-77
2021/05/30 11:31:08;;;;;;;2.22;1.70;;;20.00;39.70;;;;;;5053470;28;20025;-74
2021/05/30 11:33:42;;;;;;;3.03;2.10;;;19.80;39.90;;;;;;5052705;28;20462;-71
2021/05/30 11:36:13;;;;;;;2.85;1.58;;;19.80;39.30;;;;;;5053937;28;20029;-72
2021/05/30 11:38:52;;;;;;;3.80;2.45;;;19.80;38.70;;;;;;5042926;28;20072;-71
2021/05/30 11:41:36;;;;;;;3.72;2.40;;;20.00;38.90;;;;;;5036074;28;20100;-71
2021/05/30 11:44:14;;;;;;;2.40;1.85;;;19.90;39.10;;;;;;5044078;28;20036;-72
2021/05/30 11:47:10;;;;;;;2.80;1.70;;;20.00;40.10;;;;;;5053671;28;20457;-73
2021/05/30 11:49:38;;;;;;;6.00;2.20;;;20.30;38.60;;;;;;5045806;28;20025;-73
2021/05/30 11:52:09;;;;;;;2.28;1.90;;;20.80;38.90;;;;;;5047443;28;20129;-74
2021/05/30 11:54:50;;;;;;;2.33;2.08;;;21.30;37.50;;;;;;5042821;28;20108;-72
2021/05/30 11:57:21;;;;;;;2.88;1.90;;;21.40;37.90;;;;;;5028962;28;20453;-73
2021/05/30 11:59:58;;;;;;;4.00;2.10;;;21.40;37.90;;;;;;5040629;28;20117;-72
2021/05/30 12:02:41;;;;;;;3.45;1.80;;;21.30;38.20;;;;;;5038361;28;20036;-73
2021/05/30 12:05:10;;;;;;;3.70;1.60;;;21.30;39.40;;;;;;5039903;28;20412;-73
2021/05/30 12:07:36;;;;;;;2.83;2.13;;;21.60;36.50;;;;;;5049795;28;20056;-74
2021/05/30 12:10:18;;;;;;;3.17;2.10;;;21.70;36.40;;;;;;5052333;28;20041;-73
2021/05/30 12:12:47;;;;;;;2.85;1.70;;;21.90;36.90;;;;;;5044904;28;20025;-74
2021/05/30 12:15:23;;;;;;;3.05;1.85;;;22.10;34.10;;;;;;5053194;28;20033;-73
2021/05/30 12:18:04;;;;;;;5.65;1.83;;;22.10;33.90;;;;;;5046959;28;20208;-73
2021/05/30 12:20:32;;;;;;;3.78;2.47;;;22.30;34.20;;;;;;5049076;28;20064;-77
2021/05/30 12:23:21;;;;;;;2.40;1.77;;;22.40;35.10;;;;;;5034318;28;20428;-76
2021/05/30 12:25:55;;;;;;;1.80;1.60;;;22.30;35.90;;;;;;5035117;28;20620;-75
2021/05/30 12:28:23;;;;;;;3.15;2.05;;;22.50;35.10;;;;;;5048231;28;20036;-75
2021/05/30 12:30:52;;;;;;;6.28;2.30;;;22.40;36.50;;;;;;5033200;28;20053;-74
2021/05/30 12:33:20;;;;;;;3.05;1.80;;;22.10;34.60;;;;;;5042037;28;20037;-74
2021/05/30 12:35:48;;;;;;;2.45;1.75;;;21.60;34.30;;;;;;5032704;28;20030;-73
2021/05/30 12:38:16;;;;;;;2.53;2.30;;;21.70;35.80;;;;;;5036622;28;20033;-74
2021/05/30 12:40:43;;;;;;;3.03;1.80;;;22.10;35.10;;;;;;5034436;28;20049;-76
2021/05/30 12:43:09;;;;;;;3.10;2.17;;;22.70;34.50;;;;;;5035927;28;20494;-74
2021/05/30 12:45:36;;;;;;;2.28;1.75;;;23.10;33.40;;;;;;5034516;28;20091;-74
2021/05/30 12:48:02;;;;;;;2.28;2.00;;;22.90;34.00;;;;;;5037778;28;20091;-74
2021/05/30 12:50:40;;;;;;;5.78;2.20;;;22.90;35.20;;;;;;5032854;28;20040;-72
2021/05/30 12:53:06;;;;;;;2.92;1.77;;;23.20;33.10;;;;;;5034236;28;20467;-70
2021/05/30 12:55:39;;;;;;;3.20;2.17;;;22.70;33.40;;;;;;5049633;28;20422;-72
2021/05/30 12:58:16;;;;;;;4.30;2.17;;;22.70;34.70;;;;;;5045402;28;20501;-70